sensor_id;sensor_type;location;lat;lon;timestamp;P1;durP1;ratioP1;P2;durP2;ratioP2
35312;SDS011;21425;50.454;30.466;2022-12-11T01:46:17;979.25;;;127.25;;
35312;SDS011;21425;50.454;30.466;2022-12-11T01:48:43;571.85;;;75.57;;
35312;SDS011;21425;50.454;30.466;2022-12-11T01:51:08;712.25;;;97.82;;
35312;SDS011;21425;50.454;30.466;2022-12-11T01:53:36;670.60;;;83.80;;
35312;SDS011;21425;50.454;30.466;2022-12-11T01:56:04;671.67;;;81.35;;
35312;SDS011;21425;50.454;30.466;2022-12-11T01:58:33;826.33;;;110.85;;
35312;SDS011;21425;50.454;30.466;2022-12-11T02:01:04;668.70;;;85.38;;
35312;SDS011;21425;50.454;30.466;2022-12-11T02:03:30;946.92;;;108.78;;
35312;SDS011;21425;50.454;30.466;2022-12-11T02:06:00;481.77;;;61.95;;
35312;SDS011;21425;50.454;30.466;2022-12-11T02:08:27;934.58;;;118.50;;
35312;SDS011;21425;50.454;30.466;2022-12-11T02:10:57;210.35;;;37.80;;
35312;SDS011;21425;50.454;30.466;2022-12-11T02:13:45;1038.82;;;127.43;;
35312;SDS011;21425;50.454;30.466;2022-12-11T02:18:50;323.77;;;49.90;;
35312;SDS011;21425;50.454;30.466;2022-12-11T02:21:19;125.40;;;34.95;;
35312;SDS011;21425;50.454;30.466;2022-12-11T02:26:27;424.75;;;54.30;;
35312;SDS011;21425;50.454;30.466;2022-12-11T02:29:07;275.60;;;41.40;;
35312;SDS011;21425;50.454;30.466;2022-12-11T02:31:57;841.40;;;107.00;;
35312;SDS011;21425;50.454;30.466;2022-12-11T02:34:30;508.15;;;63.63;;
35312;SDS011;21425;50.454;30.466;2022-12-11T02:37:04;372.92;;;50.10;;
35312;SDS011;21425;50.454;30.466;2022-12-11T02:39:39;786.10;;;97.15;;
35312;SDS011;21425;50.454;30.466;2022-12-11T02:42:07;218.30;;;36.47;;
35312;SDS011;21425;50.454;30.466;2022-12-11T02:44:35;413.48;;;53.83;;
35312;SDS011;21425;50.454;30.466;2022-12-11T02:47:02;372.10;;;51.85;;
35312;SDS011;21425;50.454;30.466;2022-12-11T02:49:31;595.38;;;78.70;;
35312;SDS011;21425;50.454;30.466;2022-12-11T02:51:58;527.67;;;65.28;;
35312;SDS011;21425;50.454;30.466;2022-12-11T02:54:28;327.90;;;45.38;;
35312;SDS011;21425;50.454;30.466;2022-12-11T02:56:57;180.55;;;31.65;;
35312;SDS011;21425;50.454;30.466;2022-12-11T02:59:31;312.00;;;40.35;;
35312;SDS011;21425;50.454;30.466;2022-12-11T03:01:59;266.67;;;37.47;;
35312;SDS011;21425;50.454;30.466;2022-12-11T03:04:26;859.80;;;104.47;;
35312;SDS011;21425;50.454;30.466;2022-12-11T03:06:53;521.95;;;63.92;;
35312;SDS011;21425;50.454;30.466;2022-12-11T03:09:24;1038.68;;;130.90;;
35312;SDS011;21425;50.454;30.466;2022-12-11T03:11:50;162.40;;;33.88;;
35312;SDS011;21425;50.454;30.466;2022-12-11T03:14:16;389.23;;;53.40;;
35312;SDS011;21425;50.454;30.466;2022-12-11T03:16:46;460.23;;;62.30;;
35312;SDS011;21425;50.454;30.466;2022-12-11T03:22:25;333.45;;;48.05;;
35312;SDS011;21425;50.454;30.466;2022-12-11T03:24:45;416.98;;;56.75;;
35312;SDS011;21425;50.454;30.466;2022-12-11T03:29:54;232.95;;;36.22;;
35312;SDS011;21425;50.454;30.466;2022-12-11T03:32:24;333.38;;;44.17;;
35312;SDS011;21425;50.454;30.466;2022-12-11T03:34:56;744.75;;;97.75;;
35312;SDS011;21425;50.454;30.466;2022-12-11T03:37:27;474.90;;;62.08;;
35312;SDS011;21425;50.454;30.466;2022-12-11T03:39:57;491.63;;;70.90;;
35312;SDS011;21425;50.454;30.466;2022-12-11T03:42:27;333.55;;;46.95;;
35312;SDS011;21425;50.454;30.466;2022-12-11T03:44:53;457.02;;;56.10;;
35312;SDS011;21425;50.454;30.466;2022-12-11T03:47:22;798.38;;;98.38;;
35312;SDS011;21425;50.454;30.466;2022-12-11T03:49:51;578.90;;;66.60;;
35312;SDS011;21425;50.454;30.466;2022-12-11T03:52:18;534.88;;;58.05;;
35312;SDS011;21425;50.454;30.466;2022-12-11T03:54:45;68.88;;;22.58;;
35312;SDS011;21425;50.454;30.466;2022-12-11T03:57:14;929.47;;;106.57;;
35312;SDS011;21425;50.454;30.466;2022-12-11T03:59:42;1085.00;;;136.23;;
35312;SDS011;21425;50.454;30.466;2022-12-11T04:02:08;493.45;;;65.15;;
35312;SDS011;21425;50.454;30.466;2022-12-11T04:04:35;586.40;;;80.10;;
35312;SDS011;21425;50.454;30.466;2022-12-11T04:07:04;690.88;;;94.55;;
35312;SDS011;21425;50.454;30.466;2022-12-11T04:09:30;106.47;;;30.10;;
35312;SDS011;21425;50.454;30.466;2022-12-11T04:11:56;153.35;;;28.88;;
35312;SDS011;21425;50.454;30.466;2022-12-11T04:14:21;93.38;;;25.95;;
35312;SDS011;21425;50.454;30.466;2022-12-11T04:17:06;166.40;;;31.33;;
35312;SDS011;21425;50.454;30.466;2022-12-11T04:19:31;193.32;;;36.38;;
35312;SDS011;21425;50.454;30.466;2022-12-11T04:22:16;954.55;;;112.35;;
35312;SDS011;21425;50.454;30.466;2022-12-11T04:25:01;407.48;;;54.08;;
35312;SDS011;21425;50.454;30.466;2022-12-11T04:27:28;433.48;;;52.40;;
35312;SDS011;21425;50.454;30.466;2022-12-11T04:30:14;197.68;;;32.75;;
35312;SDS011;21425;50.454;30.466;2022-12-11T04:32:41;195.73;;;31.58;;
35312;SDS011;21425;50.454;30.466;2022-12-11T04:35:08;216.50;;;32.30;;
35312;SDS011;21425;50.454;30.466;2022-12-11T04:37:34;594.97;;;68.63;;
35312;SDS011;21425;50.454;30.466;2022-12-11T04:40:00;307.50;;;45.72;;
35312;SDS011;21425;50.454;30.466;2022-12-11T04:42:26;197.38;;;30.65;;
35312;SDS011;21425;50.454;30.466;2022-12-11T04:44:52;678.92;;;84.15;;
35312;SDS011;21425;50.454;30.466;2022-12-11T04:47:17;54.70;;;21.35;;
35312;SDS011;21425;50.454;30.466;2022-12-11T04:49:43;450.67;;;54.10;;
35312;SDS011;21425;50.454;30.466;2022-12-11T04:52:08;152.93;;;24.73;;
35312;SDS011;21425;50.454;30.466;2022-12-11T04:54:34;327.92;;;43.40;;
35312;SDS011;21425;50.454;30.466;2022-12-11T04:57:00;536.60;;;74.13;;
35312;SDS011;21425;50.454;30.466;2022-12-11T04:59:25;354.23;;;41.28;;
35312;SDS011;21425;50.454;30.466;2022-12-11T05:01:51;753.35;;;91.82;;
35312;SDS011;21425;50.454;30.466;2022-12-11T05:04:16;980.35;;;111.78;;
35312;SDS011;21425;50.454;30.466;2022-12-11T05:06:42;644.85;;;79.13;;
35312;SDS011;21425;50.454;30.466;2022-12-11T05:09:11;396.50;;;46.05;;
35312;SDS011;21425;50.454;30.466;2022-12-11T05:11:37;325.30;;;45.47;;
35312;SDS011;21425;50.454;30.466;2022-12-11T05:14:03;514.83;;;62.47;;
35312;SDS011;21425;50.454;30.466;2022-12-11T05:16:29;288.15;;;41.17;;
35312;SDS011;21425;50.454;30.466;2022-12-11T05:18:54;443.75;;;54.22;;
35312;SDS011;21425;50.454;30.466;2022-12-11T05:21:20;216.75;;;32.03;;
35312;SDS011;21425;50.454;30.466;2022-12-11T05:23:46;205.68;;;33.67;;
35312;SDS011;21425;50.454;30.466;2022-12-11T05:26:16;408.90;;;52.95;;
35312;SDS011;21425;50.454;30.466;2022-12-11T05:28:44;238.57;;;33.35;;
35312;SDS011;21425;50.454;30.466;2022-12-11T05:31:14;394.02;;;50.22;;
35312;SDS011;21425;50.454;30.466;2022-12-11T05:33:43;98.47;;;22.83;;
35312;SDS011;21425;50.454;30.466;2022-12-11T05:36:12;602.45;;;77.43;;
35312;SDS011;21425;50.454;30.466;2022-12-11T05:38:41;965.97;;;121.47;;
35312;SDS011;21425;50.454;30.466;2022-12-11T05:41:07;352.83;;;44.13;;
35312;SDS011;21425;50.454;30.466;2022-12-11T05:43:33;493.08;;;57.92;;
35312;SDS011;21425;50.454;30.466;2022-12-11T05:46:04;482.15;;;57.63;;
35312;SDS011;21425;50.454;30.466;2022-12-11T05:48:36;358.35;;;44.90;;
35312;SDS011;21425;50.454;30.466;2022-12-11T05:51:02;299.80;;;40.03;;
35312;SDS011;21425;50.454;30.466;2022-12-11T05:53:29;307.65;;;43.45;;
35312;SDS011;21425;50.454;30.466;2022-12-11T05:55:59;476.33;;;54.33;;
35312;SDS011;21425;50.454;30.466;2022-12-11T05:58:26;500.05;;;60.60;;
35312;SDS011;21425;50.454;30.466;2022-12-11T06:00:52;153.68;;;22.63;;
35312;SDS011;21425;50.454;30.466;2022-12-11T06:03:18;776.08;;;91.38;;
35312;SDS011;21425;50.454;30.466;2022-12-11T06:05:43;110.72;;;23.13;;
35312;SDS011;21425;50.454;30.466;2022-12-11T06:08:09;128.32;;;23.33;;
35312;SDS011;21425;50.454;30.466;2022-12-11T06:10:34;297.20;;;33.85;;
35312;SDS011;21425;50.454;30.466;2022-12-11T06:13:00;768.03;;;92.15;;
35312;SDS011;21425;50.454;30.466;2022-12-11T06:15:26;501.80;;;58.17;;
35312;SDS011;21425;50.454;30.466;2022-12-11T06:17:51;539.38;;;61.33;;
35312;SDS011;21425;50.454;30.466;2022-12-11T06:20:17;547.78;;;60.97;;
35312;SDS011;21425;50.454;30.466;2022-12-11T06:22:42;960.83;;;100.97;;
35312;SDS011;21425;50.454;30.466;2022-12-11T06:25:08;1133.82;;;147.50;;
35312;SDS011;21425;50.454;30.466;2022-12-11T06:27:34;125.63;;;29.10;;
35312;SDS011;21425;50.454;30.466;2022-12-11T06:29:59;283.60;;;42.00;;
35312;SDS011;21425;50.454;30.466;2022-12-11T10:49:35;1181.97;;;133.07;;
35312;SDS011;21425;50.454;30.466;2022-12-11T10:52:09;1836.90;;;210.10;;
35312;SDS011;21425;50.454;30.466;2022-12-11T10:54:38;1413.07;;;166.27;;
35312;SDS011;21425;50.454;30.466;2022-12-11T10:57:06;1374.82;;;155.13;;
35312;SDS011;21425;50.454;30.466;2022-12-11T11:02:21;1547.95;;;173.10;;
35312;SDS011;21425;50.454;30.466;2022-12-11T11:04:52;1983.90;;;250.15;;
35312;SDS011;21425;50.454;30.466;2022-12-11T11:07:21;1999.90;;;265.52;;
35312;SDS011;21425;50.454;30.466;2022-12-11T11:12:37;1997.77;;;246.80;;
35312;SDS011;21425;50.454;30.466;2022-12-11T11:15:14;1425.03;;;167.23;;
35312;SDS011;21425;50.454;30.466;2022-12-11T11:17:50;1356.88;;;165.60;;
35312;SDS011;21425;50.454;30.466;2022-12-11T11:20:19;1459.82;;;183.23;;
35312;SDS011;21425;50.454;30.466;2022-12-11T11:22:50;1730.22;;;204.40;;
35312;SDS011;21425;50.454;30.466;2022-12-11T11:25:22;887.95;;;97.28;;
35312;SDS011;21425;50.454;30.466;2022-12-11T11:27:51;1262.57;;;150.35;;
35312;SDS011;21425;50.454;30.466;2022-12-11T11:30:38;1206.75;;;143.18;;
35312;SDS011;21425;50.454;30.466;2022-12-11T11:33:12;1458.93;;;176.48;;
35312;SDS011;21425;50.454;30.466;2022-12-11T11:35:53;707.15;;;88.50;;
35312;SDS011;21425;50.454;30.466;2022-12-11T11:38:21;1107.00;;;140.77;;
35312;SDS011;21425;50.454;30.466;2022-12-11T11:53:55;1019.72;;;117.50;;
35312;SDS011;21425;50.454;30.466;2022-12-11T11:56:25;376.08;;;43.03;;
35312;SDS011;21425;50.454;30.466;2022-12-11T11:58:56;276.38;;;36.55;;
35312;SDS011;21425;50.454;30.466;2022-12-11T12:01:41;303.58;;;40.17;;
35312;SDS011;21425;50.454;30.466;2022-12-11T12:04:07;902.85;;;116.85;;
35312;SDS011;21425;50.454;30.466;2022-12-11T12:17:39;517.50;;;62.35;;
35312;SDS011;21425;50.454;30.466;2022-12-11T12:25:52;100.70;;;26.63;;
35312;SDS011;21425;50.454;30.466;2022-12-11T12:31:13;123.75;;;30.92;;
35312;SDS011;21425;50.454;30.466;2022-12-11T12:37:33;82.38;;;22.65;;
35312;SDS011;21425;50.454;30.466;2022-12-11T12:43:05;59.53;;;21.45;;
35312;SDS011;21425;50.454;30.466;2022-12-11T12:48:17;43.92;;;17.02;;
35312;SDS011;21425;50.454;30.466;2022-12-11T12:50:46;46.38;;;19.55;;
35312;SDS011;21425;50.454;30.466;2022-12-11T12:53:16;54.85;;;19.38;;
35312;SDS011;21425;50.454;30.466;2022-12-11T12:55:51;51.55;;;19.48;;
35312;SDS011;21425;50.454;30.466;2022-12-11T12:58:39;49.45;;;20.70;;
35312;SDS011;21425;50.454;30.466;2022-12-11T13:03:47;91.75;;;33.58;;
35312;SDS011;21425;50.454;30.466;2022-12-11T13:09:09;60.28;;;23.40;;
35312;SDS011;21425;50.454;30.466;2022-12-11T13:12:02;52.17;;;19.27;;
35312;SDS011;21425;50.454;30.466;2022-12-11T13:14:39;51.22;;;18.92;;
35312;SDS011;21425;50.454;30.466;2022-12-11T13:19:46;45.72;;;19.38;;
35312;SDS011;21425;50.454;30.466;2022-12-11T13:27:25;48.10;;;18.40;;
35312;SDS011;21425;50.454;30.466;2022-12-11T13:30:03;41.70;;;17.98;;
35312;SDS011;21425;50.454;30.466;2022-12-11T13:32:39;38.83;;;17.90;;
35312;SDS011;21425;50.454;30.466;2022-12-11T13:35:17;41.47;;;17.02;;
35312;SDS011;21425;50.454;30.466;2022-12-11T13:37:43;42.55;;;17.48;;
35312;SDS011;21425;50.454;30.466;2022-12-11T13:47:21;41.75;;;17.27;;
35312;SDS011;21425;50.454;30.466;2022-12-11T13:49:49;41.78;;;17.77;;
35312;SDS011;21425;50.454;30.466;2022-12-11T13:52:19;50.72;;;20.35;;
35312;SDS011;21425;50.454;30.466;2022-12-11T13:54:55;43.85;;;18.65;;
35312;SDS011;21425;50.454;30.466;2022-12-11T13:57:24;51.97;;;19.48;;
35312;SDS011;21425;50.454;30.466;2022-12-11T13:59:53;42.72;;;16.65;;
35312;SDS011;21425;50.454;30.466;2022-12-11T14:02:27;45.92;;;20.13;;
35312;SDS011;21425;50.454;30.466;2022-12-11T14:04:57;45.67;;;19.67;;
35312;SDS011;21425;50.454;30.466;2022-12-11T14:07:27;48.47;;;19.67;;
35312;SDS011;21425;50.454;30.466;2022-12-11T14:09:58;40.35;;;18.77;;
35312;SDS011;21425;50.454;30.466;2022-12-11T14:12:29;55.63;;;20.40;;
35312;SDS011;21425;50.454;30.466;2022-12-11T14:14:56;48.33;;;19.25;;
35312;SDS011;21425;50.454;30.466;2022-12-11T14:17:27;52.63;;;20.05;;
35312;SDS011;21425;50.454;30.466;2022-12-11T14:19:56;42.08;;;18.45;;
35312;SDS011;21425;50.454;30.466;2022-12-11T14:22:25;47.45;;;20.10;;
35312;SDS011;21425;50.454;30.466;2022-12-11T14:24:53;45.78;;;19.92;;
35312;SDS011;21425;50.454;30.466;2022-12-11T14:27:24;48.35;;;21.58;;
35312;SDS011;21425;50.454;30.466;2022-12-11T14:29:50;39.85;;;18.38;;
35312;SDS011;21425;50.454;30.466;2022-12-11T14:32:23;46.83;;;22.25;;
35312;SDS011;21425;50.454;30.466;2022-12-11T14:34:56;45.47;;;19.00;;
35312;SDS011;21425;50.454;30.466;2022-12-11T14:37:24;48.65;;;19.50;;
35312;SDS011;21425;50.454;30.466;2022-12-11T14:39:56;47.00;;;20.08;;
35312;SDS011;21425;50.454;30.466;2022-12-11T14:42:54;42.85;;;18.58;;
35312;SDS011;21425;50.454;30.466;2022-12-11T14:47:54;44.25;;;19.48;;
35312;SDS011;21425;50.454;30.466;2022-12-11T14:50:41;42.08;;;16.50;;
35312;SDS011;21425;50.454;30.466;2022-12-11T14:53:14;45.78;;;18.63;;
35312;SDS011;21425;50.454;30.466;2022-12-11T14:55:47;53.03;;;19.65;;
35312;SDS011;21425;50.454;30.466;2022-12-11T14:58:15;45.22;;;18.67;;
35312;SDS011;21425;50.454;30.466;2022-12-11T15:00:44;42.58;;;19.02;;
35312;SDS011;21425;50.454;30.466;2022-12-11T15:03:34;40.58;;;17.98;;
35312;SDS011;21425;50.454;30.466;2022-12-11T15:08:29;46.38;;;20.38;;
35312;SDS011;21425;50.454;30.466;2022-12-11T15:11:06;40.33;;;14.80;;
35312;SDS011;21425;50.454;30.466;2022-12-11T15:13:35;31.33;;;15.20;;
35312;SDS011;21425;50.454;30.466;2022-12-11T15:16:03;34.65;;;15.65;;
35312;SDS011;21425;50.454;30.466;2022-12-11T15:18:35;35.47;;;15.02;;
35312;SDS011;21425;50.454;30.466;2022-12-11T15:21:06;40.35;;;16.38;;
35312;SDS011;21425;50.454;30.466;2022-12-11T15:26:15;31.23;;;14.05;;
35312;SDS011;21425;50.454;30.466;2022-12-11T15:28:41;33.03;;;13.88;;
35312;SDS011;21425;50.454;30.466;2022-12-11T15:31:21;43.58;;;16.23;;
35312;SDS011;21425;50.454;30.466;2022-12-11T15:33:52;46.00;;;18.20;;
35312;SDS011;21425;50.454;30.466;2022-12-11T15:36:20;40.75;;;16.73;;
35312;SDS011;21425;50.454;30.466;2022-12-11T15:39:01;53.70;;;19.40;;
35312;SDS011;21425;50.454;30.466;2022-12-11T15:41:29;36.15;;;16.48;;
35312;SDS011;21425;50.454;30.466;2022-12-11T15:43:58;47.75;;;17.75;;
35312;SDS011;21425;50.454;30.466;2022-12-11T15:46:25;36.85;;;15.27;;
35312;SDS011;21425;50.454;30.466;2022-12-11T15:48:52;43.08;;;17.40;;
35312;SDS011;21425;50.454;30.466;2022-12-11T15:51:17;30.73;;;13.50;;
35312;SDS011;21425;50.454;30.466;2022-12-11T15:53:43;32.30;;;15.00;;
35312;SDS011;21425;50.454;30.466;2022-12-11T15:56:12;28.65;;;14.00;;
35312;SDS011;21425;50.454;30.466;2022-12-11T15:58:39;36.17;;;13.95;;
35312;SDS011;21425;50.454;30.466;2022-12-11T16:01:05;30.88;;;13.27;;
35312;SDS011;21425;50.454;30.466;2022-12-11T16:03:30;29.67;;;13.10;;
35312;SDS011;21425;50.454;30.466;2022-12-11T16:05:56;26.23;;;10.63;;
35312;SDS011;21425;50.454;30.466;2022-12-11T16:08:22;33.53;;;12.80;;
35312;SDS011;21425;50.454;30.466;2022-12-11T16:10:49;29.70;;;13.65;;
35312;SDS011;21425;50.454;30.466;2022-12-11T16:13:17;26.50;;;12.27;;
35312;SDS011;21425;50.454;30.466;2022-12-11T16:15:43;28.30;;;12.90;;
35312;SDS011;21425;50.454;30.466;2022-12-11T16:18:11;31.95;;;13.13;;
35312;SDS011;21425;50.454;30.466;2022-12-11T16:20:39;19.73;;;10.38;;
35312;SDS011;21425;50.454;30.466;2022-12-11T16:23:06;34.03;;;15.15;;
35312;SDS011;21425;50.454;30.466;2022-12-11T16:25:32;31.05;;;12.68;;
35312;SDS011;21425;50.454;30.466;2022-12-11T16:27:59;33.22;;;14.05;;
35312;SDS011;21425;50.454;30.466;2022-12-11T16:30:25;38.17;;;15.55;;
35312;SDS011;21425;50.454;30.466;2022-12-11T16:32:52;39.20;;;17.98;;
35312;SDS011;21425;50.454;30.466;2022-12-11T16:35:18;35.72;;;16.85;;
35312;SDS011;21425;50.454;30.466;2022-12-11T16:37:47;43.95;;;19.88;;
35312;SDS011;21425;50.454;30.466;2022-12-11T16:40:13;45.83;;;19.52;;
35312;SDS011;21425;50.454;30.466;2022-12-11T16:42:39;49.00;;;20.08;;
35312;SDS011;21425;50.454;30.466;2022-12-11T16:45:09;49.17;;;19.77;;
35312;SDS011;21425;50.454;30.466;2022-12-11T16:47:41;51.58;;;20.52;;
35312;SDS011;21425;50.454;30.466;2022-12-11T16:50:07;61.20;;;24.65;;
35312;SDS011;21425;50.454;30.466;2022-12-11T16:52:33;59.42;;;25.00;;
35312;SDS011;21425;50.454;30.466;2022-12-11T16:54:59;69.03;;;27.35;;
35312;SDS011;21425;50.454;30.466;2022-12-11T16:57:24;65.85;;;26.65;;
35312;SDS011;21425;50.454;30.466;2022-12-11T16:59:50;69.03;;;24.42;;
35312;SDS011;21425;50.454;30.466;2022-12-11T17:02:17;71.95;;;29.05;;
35312;SDS011;21425;50.454;30.466;2022-12-11T17:04:43;76.25;;;26.70;;
35312;SDS011;21425;50.454;30.466;2022-12-11T17:07:10;65.53;;;24.10;;
35312;SDS011;21425;50.454;30.466;2022-12-11T17:09:36;64.95;;;25.65;;
35312;SDS011;21425;50.454;30.466;2022-12-11T17:12:01;77.15;;;27.70;;
35312;SDS011;21425;50.454;30.466;2022-12-11T17:14:28;66.63;;;26.00;;
35312;SDS011;21425;50.454;30.466;2022-12-11T17:16:54;70.13;;;23.58;;
35312;SDS011;21425;50.454;30.466;2022-12-11T17:19:20;69.50;;;26.55;;
35312;SDS011;21425;50.454;30.466;2022-12-11T17:21:47;78.25;;;27.90;;
35312;SDS011;21425;50.454;30.466;2022-12-11T17:24:14;68.15;;;27.38;;
35312;SDS011;21425;50.454;30.466;2022-12-11T17:26:40;62.63;;;24.45;;
35312;SDS011;21425;50.454;30.466;2022-12-11T17:29:06;68.25;;;25.33;;
35312;SDS011;21425;50.454;30.466;2022-12-11T17:31:32;66.82;;;24.77;;
35312;SDS011;21425;50.454;30.466;2022-12-11T17:33:57;70.50;;;28.05;;
35312;SDS011;21425;50.454;30.466;2022-12-11T17:36:24;66.25;;;26.05;;
35312;SDS011;21425;50.454;30.466;2022-12-11T17:38:51;73.15;;;28.85;;
35312;SDS011;21425;50.454;30.466;2022-12-11T17:41:17;67.93;;;25.35;;
35312;SDS011;21425;50.454;30.466;2022-12-11T17:43:45;71.28;;;25.50;;
35312;SDS011;21425;50.454;30.466;2022-12-11T17:46:11;65.90;;;26.73;;
35312;SDS011;21425;50.454;30.466;2022-12-11T17:48:37;70.57;;;27.85;;
35312;SDS011;21425;50.454;30.466;2022-12-11T17:51:04;70.65;;;24.33;;
35312;SDS011;21425;50.454;30.466;2022-12-11T17:53:32;78.15;;;28.88;;
35312;SDS011;21425;50.454;30.466;2022-12-11T17:55:59;82.60;;;27.70;;
35312;SDS011;21425;50.454;30.466;2022-12-11T17:58:30;88.93;;;31.83;;
35312;SDS011;21425;50.454;30.466;2022-12-11T18:00:56;87.55;;;29.50;;
35312;SDS011;21425;50.454;30.466;2022-12-11T18:03:23;91.38;;;32.30;;
35312;SDS011;21425;50.454;30.466;2022-12-11T18:05:52;96.90;;;31.55;;
35312;SDS011;21425;50.454;30.466;2022-12-11T18:08:26;83.78;;;29.48;;
35312;SDS011;21425;50.454;30.466;2022-12-11T18:10:54;84.07;;;29.17;;
35312;SDS011;21425;50.454;30.466;2022-12-11T18:13:20;83.97;;;29.85;;
35312;SDS011;21425;50.454;30.466;2022-12-11T18:15:57;81.65;;;27.70;;
35312;SDS011;21425;50.454;30.466;2022-12-11T18:18:30;94.38;;;29.90;;
35312;SDS011;21425;50.454;30.466;2022-12-11T18:20:56;90.15;;;30.77;;
35312;SDS011;21425;50.454;30.466;2022-12-11T18:23:22;86.43;;;29.35;;
35312;SDS011;21425;50.454;30.466;2022-12-11T18:25:48;82.68;;;29.13;;
35312;SDS011;21425;50.454;30.466;2022-12-11T18:28:14;77.20;;;28.80;;
35312;SDS011;21425;50.454;30.466;2022-12-11T18:30:39;73.45;;;26.20;;
35312;SDS011;21425;50.454;30.466;2022-12-11T18:33:05;71.07;;;26.38;;
35312;SDS011;21425;50.454;30.466;2022-12-11T18:35:30;68.78;;;24.75;;
35312;SDS011;21425;50.454;30.466;2022-12-11T18:37:56;58.78;;;24.30;;
35312;SDS011;21425;50.454;30.466;2022-12-11T18:40:21;63.65;;;24.77;;
35312;SDS011;21425;50.454;30.466;2022-12-11T18:42:47;61.80;;;23.67;;
35312;SDS011;21425;50.454;30.466;2022-12-11T18:45:13;61.63;;;23.50;;
35312;SDS011;21425;50.454;30.466;2022-12-11T18:47:39;65.32;;;23.17;;
35312;SDS011;21425;50.454;30.466;2022-12-11T18:50:04;73.78;;;25.73;;
35312;SDS011;21425;50.454;30.466;2022-12-11T18:52:30;67.10;;;26.63;;
35312;SDS011;21425;50.454;30.466;2022-12-11T18:54:56;57.80;;;21.75;;
35312;SDS011;21425;50.454;30.466;2022-12-11T18:57:21;12.13;;;5.60;;
35312;SDS011;21425;50.454;30.466;2022-12-11T18:59:50;7.47;;;4.50;;
35312;SDS011;21425;50.454;30.466;2022-12-11T19:02:17;6.60;;;3.80;;
35312;SDS011;21425;50.454;30.466;2022-12-11T19:04:43;8.18;;;4.18;;
35312;SDS011;21425;50.454;30.466;2022-12-11T19:07:09;8.70;;;4.65;;
35312;SDS011;21425;50.454;30.466;2022-12-11T19:09:34;10.43;;;5.35;;
35312;SDS011;21425;50.454;30.466;2022-12-11T19:12:00;10.10;;;5.18;;
35312;SDS011;21425;50.454;30.466;2022-12-11T19:14:26;6.25;;;4.25;;
35312;SDS011;21425;50.454;30.466;2022-12-11T19:16:51;8.95;;;5.97;;
35312;SDS011;21425;50.454;30.466;2022-12-11T19:19:18;10.55;;;6.53;;
35312;SDS011;21425;50.454;30.466;2022-12-11T19:21:45;8.77;;;5.35;;
35312;SDS011;21425;50.454;30.466;2022-12-11T19:24:13;9.48;;;5.60;;
35312;SDS011;21425;50.454;30.466;2022-12-11T19:26:41;16.65;;;7.43;;
35312;SDS011;21425;50.454;30.466;2022-12-11T19:29:07;12.43;;;7.60;;
35312;SDS011;21425;50.454;30.466;2022-12-11T19:31:37;14.07;;;7.20;;
35312;SDS011;21425;50.454;30.466;2022-12-11T19:34:03;10.43;;;6.22;;
35312;SDS011;21425;50.454;30.466;2022-12-11T19:36:28;11.27;;;6.60;;
35312;SDS011;21425;50.454;30.466;2022-12-11T19:38:55;10.70;;;6.88;;
35312;SDS011;21425;50.454;30.466;2022-12-11T19:41:22;9.82;;;6.00;;
35312;SDS011;21425;50.454;30.466;2022-12-11T19:43:53;14.02;;;7.03;;
35312;SDS011;21425;50.454;30.466;2022-12-11T19:46:20;10.48;;;6.38;;
35312;SDS011;21425;50.454;30.466;2022-12-11T19:48:47;13.73;;;7.50;;
35312;SDS011;21425;50.454;30.466;2022-12-11T19:51:16;11.05;;;5.97;;
35312;SDS011;21425;50.454;30.466;2022-12-11T19:53:44;6.07;;;3.63;;
35312;SDS011;21425;50.454;30.466;2022-12-11T19:56:10;7.32;;;3.78;;
35312;SDS011;21425;50.454;30.466;2022-12-11T19:58:36;10.02;;;4.90;;
35312;SDS011;21425;50.454;30.466;2022-12-11T20:01:02;9.20;;;4.72;;
35312;SDS011;21425;50.454;30.466;2022-12-11T20:03:29;9.45;;;3.72;;
35312;SDS011;21425;50.454;30.466;2022-12-11T20:05:58;9.75;;;4.90;;
35312;SDS011;21425;50.454;30.466;2022-12-11T20:08:25;9.35;;;5.57;;
35312;SDS011;21425;50.454;30.466;2022-12-11T20:10:51;7.80;;;4.38;;
35312;SDS011;21425;50.454;30.466;2022-12-11T20:13:17;8.85;;;5.00;;
35312;SDS011;21425;50.454;30.466;2022-12-11T20:15:44;10.82;;;6.57;;
35312;SDS011;21425;50.454;30.466;2022-12-11T20:18:10;10.13;;;5.60;;
35312;SDS011;21425;50.454;30.466;2022-12-11T20:20:37;13.35;;;7.15;;
35312;SDS011;21425;50.454;30.466;2022-12-11T20:23:03;8.40;;;5.05;;
35312;SDS011;21425;50.454;30.466;2022-12-11T20:25:29;10.60;;;6.65;;
35312;SDS011;21425;50.454;30.466;2022-12-11T20:27:54;12.07;;;6.75;;
35312;SDS011;21425;50.454;30.466;2022-12-11T20:30:21;7.65;;;4.18;;
35312;SDS011;21425;50.454;30.466;2022-12-11T20:32:51;9.77;;;5.35;;
35312;SDS011;21425;50.454;30.466;2022-12-11T20:35:17;12.20;;;6.82;;
35312;SDS011;21425;50.454;30.466;2022-12-11T20:37:43;9.18;;;5.45;;
35312;SDS011;21425;50.454;30.466;2022-12-11T20:40:09;11.23;;;5.43;;
35312;SDS011;21425;50.454;30.466;2022-12-11T20:42:35;10.90;;;5.63;;
35312;SDS011;21425;50.454;30.466;2022-12-11T20:45:00;7.43;;;3.58;;
35312;SDS011;21425;50.454;30.466;2022-12-11T20:47:26;11.30;;;4.03;;
35312;SDS011;21425;50.454;30.466;2022-12-11T20:49:51;13.65;;;5.82;;
35312;SDS011;21425;50.454;30.466;2022-12-11T20:52:17;9.18;;;4.40;;
35312;SDS011;21425;50.454;30.466;2022-12-11T20:54:43;10.93;;;6.00;;
35312;SDS011;21425;50.454;30.466;2022-12-11T20:57:09;11.82;;;6.00;;
35312;SDS011;21425;50.454;30.466;2022-12-11T20:59:36;14.05;;;7.13;;
35312;SDS011;21425;50.454;30.466;2022-12-11T21:02:02;9.07;;;4.45;;
35312;SDS011;21425;50.454;30.466;2022-12-11T21:04:29;7.95;;;5.45;;
35312;SDS011;21425;50.454;30.466;2022-12-11T21:06:55;11.25;;;5.63;;
35312;SDS011;21425;50.454;30.466;2022-12-11T21:09:22;7.57;;;4.53;;
35312;SDS011;21425;50.454;30.466;2022-12-11T21:11:49;12.57;;;6.53;;
35312;SDS011;21425;50.454;30.466;2022-12-11T21:14:15;11.23;;;6.40;;
35312;SDS011;21425;50.454;30.466;2022-12-11T21:16:41;10.10;;;6.20;;
35312;SDS011;21425;50.454;30.466;2022-12-11T21:19:07;10.20;;;6.65;;
35312;SDS011;21425;50.454;30.466;2022-12-11T21:21:35;5.82;;;3.10;;
35312;SDS011;21425;50.454;30.466;2022-12-11T21:24:03;11.73;;;5.85;;
35312;SDS011;21425;50.454;30.466;2022-12-11T21:26:30;11.00;;;6.10;;
35312;SDS011;21425;50.454;30.466;2022-12-11T21:28:55;11.38;;;6.10;;
35312;SDS011;21425;50.454;30.466;2022-12-11T21:31:21;9.63;;;5.15;;
35312;SDS011;21425;50.454;30.466;2022-12-11T21:33:47;13.25;;;6.40;;
35312;SDS011;21425;50.454;30.466;2022-12-11T21:36:13;12.68;;;7.25;;
35312;SDS011;21425;50.454;30.466;2022-12-11T21:38:40;12.43;;;7.25;;
35312;SDS011;21425;50.454;30.466;2022-12-11T21:41:08;10.70;;;5.75;;
35312;SDS011;21425;50.454;30.466;2022-12-11T21:43:37;10.70;;;5.75;;